Terminal Aerodrome Forecast
Issued by NWS Cleveland, OH

Home | Current Version | Previous Version | Graphics & Text | Print | Product List | Glossary On
Versions: 1 2 3 4 5 6 7 8 9 10 11 12 13 14 15 16 17 18 19 20
000
FTUS41 KCLE 021200 AAA
TAFERI
TAF AMD
KERI 021229Z 0212/0312 26012G18KT P6SM BKN040
      TEMPO 0212/0215 4SM -SN BR BKN020
     FM021800 27011KT P6SM SCT030 BKN250
     FM030200 23004KT P6SM BKN200=

USA.gov is the U.S. government's official web portal to all federal, state and local government web resources and services.